Lakebay, Washington
Current Conditions -  °F | °C
As of 11:53 AM on Tuesday 21 Oct 2014 (Local Time) from KTIW Reporting Station
Overcast Overcast  
Wind Chill: 58°   Ceiling: 6500
Heat Index: 58°   Visibility: 10mi
Dew Point: 49°   Wind: 15mph
Humidity: 72%   Direction: 190°S
Pressure: 29.93"   Gusts: NA
Location:  47.26°N, 122.76°W
Report Text: KTIW 211853Z 19013KT 10SM OVC065 14/09 A2993 RMK AO2 SLP134 T01440094
Loading
Personal Weather Stations






























Interactive Weather Map
Tropical Storm Tracking
New forecast layout! Learn more

10-Day Weather Forecast

Advertisements
Track Severe Weather on mobile